sensor_id;sensor_type;location;lat;lon;timestamp;pressure;altitude;pressure_sealevel;temperature;humidity
78014;BME280;67222;50.182;8.734;2023-04-09T05:32:21;101393.00;;;5.62;81.91
78014;BME280;67222;50.182;8.734;2023-04-09T05:34:46;101392.03;;;5.63;80.88
78014;BME280;67222;50.182;8.734;2023-04-09T05:37:12;101397.75;;;5.58;81.09
78014;BME280;67222;50.182;8.734;2023-04-09T05:39:37;101390.78;;;5.57;81.41
78014;BME280;67222;50.182;8.734;2023-04-09T05:42:03;101394.41;;;5.56;80.64
78014;BME280;67222;50.182;8.734;2023-04-09T05:44:28;101402.75;;;5.61;80.22
78014;BME280;67222;50.182;8.734;2023-04-09T05:46:53;101394.81;;;5.61;80.84
78014;BME280;67222;50.182;8.734;2023-04-09T05:49:19;101398.84;;;5.65;80.90
78014;BME280;67222;50.182;8.734;2023-04-09T05:51:44;101407.44;;;5.67;80.72
78014;BME280;67222;50.182;8.734;2023-04-09T05:54:09;101405.63;;;5.68;81.71
78014;BME280;67222;50.182;8.734;2023-04-09T05:56:34;101400.19;;;5.69;80.35
78014;BME280;67222;50.182;8.734;2023-04-09T05:59:00;101399.00;;;5.82;80.95
78014;BME280;67222;50.182;8.734;2023-04-09T06:01:25;101400.63;;;5.92;80.97
78014;BME280;67222;50.182;8.734;2023-04-09T06:03:51;101400.06;;;5.98;79.31
78014;BME280;67222;50.182;8.734;2023-04-09T06:06:16;101404.22;;;6.01;79.78
78014;BME280;67222;50.182;8.734;2023-04-09T06:08:42;101399.75;;;6.01;78.88
78014;BME280;67222;50.182;8.734;2023-04-09T06:11:10;101406.09;;;6.08;79.57
78014;BME280;67222;50.182;8.734;2023-04-09T06:13:35;101406.78;;;6.11;79.00
78014;BME280;67222;50.182;8.734;2023-04-09T06:16:03;101401.63;;;6.27;79.44
78014;BME280;67222;50.182;8.734;2023-04-09T06:18:29;101397.78;;;6.21;79.14
78014;BME280;67222;50.182;8.734;2023-04-09T06:21:05;101394.69;;;6.26;79.09
78014;BME280;67222;50.182;8.734;2023-04-09T06:23:31;101399.66;;;6.29;78.96
78014;BME280;67222;50.182;8.734;2023-04-09T06:25:57;101399.38;;;6.32;77.60
78014;BME280;67222;50.182;8.734;2023-04-09T06:28:22;101403.72;;;6.33;77.44
78014;BME280;67222;50.182;8.734;2023-04-09T06:30:48;101401.28;;;6.40;78.55
78014;BME280;67222;50.182;8.734;2023-04-09T06:33:13;101408.06;;;6.42;77.98
78014;BME280;67222;50.182;8.734;2023-04-09T06:35:38;101406.88;;;6.54;77.79
78014;BME280;67222;50.182;8.734;2023-04-09T06:38:04;101404.94;;;6.64;78.06
78014;BME280;67222;50.182;8.734;2023-04-09T06:40:30;101409.88;;;6.59;77.64
78014;BME280;67222;50.182;8.734;2023-04-09T06:42:56;101404.38;;;6.53;78.80
78014;BME280;67222;50.182;8.734;2023-04-09T06:45:21;101411.03;;;6.57;77.24
78014;BME280;67222;50.182;8.734;2023-04-09T06:47:46;101418.63;;;6.78;77.42
78014;BME280;67222;50.182;8.734;2023-04-09T06:50:12;101409.28;;;6.91;76.81
78014;BME280;67222;50.182;8.734;2023-04-09T06:52:37;101407.81;;;6.97;75.26
78014;BME280;67222;50.182;8.734;2023-04-09T06:55:03;101413.66;;;7.01;75.79
78014;BME280;67222;50.182;8.734;2023-04-09T06:57:28;101416.53;;;7.07;76.04
78014;BME280;67222;50.182;8.734;2023-04-09T06:59:53;101414.53;;;7.09;75.17
78014;BME280;67222;50.182;8.734;2023-04-09T07:02:19;101418.22;;;7.16;76.38
78014;BME280;67222;50.182;8.734;2023-04-09T07:04:44;101404.16;;;7.24;76.13
78014;BME280;67222;50.182;8.734;2023-04-09T07:07:09;101418.31;;;7.33;75.40
78014;BME280;67222;50.182;8.734;2023-04-09T07:09:35;101415.97;;;7.29;75.50
78014;BME280;67222;50.182;8.734;2023-04-09T07:12:00;101410.13;;;7.60;75.89
78014;BME280;67222;50.182;8.734;2023-04-09T07:14:25;101415.44;;;7.60;74.15
78014;BME280;67222;50.182;8.734;2023-04-09T07:16:51;101405.38;;;7.80;74.41
78014;BME280;67222;50.182;8.734;2023-04-09T07:19:16;101410.34;;;7.67;74.25
78014;BME280;67222;50.182;8.734;2023-04-09T07:21:41;101412.50;;;7.71;73.66
78014;BME280;67222;50.182;8.734;2023-04-09T07:24:07;101413.19;;;7.73;74.75
78014;BME280;67222;50.182;8.734;2023-04-09T07:26:32;101417.22;;;7.94;74.71
78014;BME280;67222;50.182;8.734;2023-04-09T07:28:57;101410.56;;;7.89;72.78
78014;BME280;67222;50.182;8.734;2023-04-09T07:31:23;101418.38;;;7.99;73.51
78014;BME280;67222;50.182;8.734;2023-04-09T07:33:48;101415.09;;;8.13;72.91
78014;BME280;67222;50.182;8.734;2023-04-09T07:36:13;101414.94;;;8.15;73.27
78014;BME280;67222;50.182;8.734;2023-04-09T07:38:39;101411.84;;;8.36;74.63
78014;BME280;67222;50.182;8.734;2023-04-09T07:41:05;101411.84;;;8.36;73.40
78014;BME280;67222;50.182;8.734;2023-04-09T07:43:30;101407.00;;;8.31;73.17
78014;BME280;67222;50.182;8.734;2023-04-09T07:45:56;101413.34;;;8.38;73.57
78014;BME280;67222;50.182;8.734;2023-04-09T07:48:21;101404.88;;;8.51;73.65
78014;BME280;67222;50.182;8.734;2023-04-09T07:50:47;101408.69;;;8.65;73.64
78014;BME280;67222;50.182;8.734;2023-04-09T07:53:12;101410.38;;;8.74;72.01
78014;BME280;67222;50.182;8.734;2023-04-09T07:55:38;101412.00;;;8.83;71.97
78014;BME280;67222;50.182;8.734;2023-04-09T07:58:04;101415.31;;;8.85;72.01
78014;BME280;67222;50.182;8.734;2023-04-09T08:00:30;101424.31;;;8.76;71.82
78014;BME280;67222;50.182;8.734;2023-04-09T08:02:55;101427.94;;;8.99;73.07
78014;BME280;67222;50.182;8.734;2023-04-09T08:05:21;101431.94;;;8.95;71.36
78014;BME280;67222;50.182;8.734;2023-04-09T08:07:47;101428.38;;;9.27;71.62
78014;BME280;67222;50.182;8.734;2023-04-09T08:10:12;101429.91;;;9.05;71.49
78014;BME280;67222;50.182;8.734;2023-04-09T08:12:39;101429.41;;;9.18;71.36
78014;BME280;67222;50.182;8.734;2023-04-09T08:15:05;101425.19;;;9.40;69.63
78014;BME280;67222;50.182;8.734;2023-04-09T08:17:31;101421.03;;;9.37;68.33
78014;BME280;67222;50.182;8.734;2023-04-09T08:19:56;101425.66;;;9.52;69.26
78014;BME280;67222;50.182;8.734;2023-04-09T08:22:21;101427.16;;;9.46;69.63
78014;BME280;67222;50.182;8.734;2023-04-09T08:24:50;101431.16;;;9.50;69.60
78014;BME280;67222;50.182;8.734;2023-04-09T08:27:16;101434.78;;;9.57;69.29
78014;BME280;67222;50.182;8.734;2023-04-09T08:29:42;101433.06;;;9.73;68.88
78014;BME280;67222;50.182;8.734;2023-04-09T08:32:07;101429.75;;;9.70;67.83
78014;BME280;67222;50.182;8.734;2023-04-09T08:34:32;101433.56;;;9.99;67.38
78014;BME280;67222;50.182;8.734;2023-04-09T08:36:58;101429.06;;;9.99;67.13
78014;BME280;67222;50.182;8.734;2023-04-09T08:39:23;101433.91;;;10.04;67.74
78014;BME280;67222;50.182;8.734;2023-04-09T08:41:50;101438.81;;;10.15;66.56
78014;BME280;67222;50.182;8.734;2023-04-09T08:44:16;101440.66;;;10.46;65.60
78014;BME280;67222;50.182;8.734;2023-04-09T08:46:41;101437.66;;;10.41;64.13
78014;BME280;67222;50.182;8.734;2023-04-09T08:49:08;101437.22;;;10.60;64.61
78014;BME280;67222;50.182;8.734;2023-04-09T08:51:34;101445.88;;;10.62;62.37
78014;BME280;67222;50.182;8.734;2023-04-09T08:54:00;101430.94;;;10.30;63.55
78014;BME280;67222;50.182;8.734;2023-04-09T08:56:26;101443.00;;;10.64;66.31
78014;BME280;67222;50.182;8.734;2023-04-09T08:58:52;101441.66;;;10.68;62.89
78014;BME280;67222;50.182;8.734;2023-04-09T09:01:22;101438.69;;;10.63;63.61
78014;BME280;67222;50.182;8.734;2023-04-09T09:03:57;101440.72;;;10.75;62.76
78014;BME280;67222;50.182;8.734;2023-04-09T09:06:25;101442.09;;;11.09;60.62
78014;BME280;67222;50.182;8.734;2023-04-09T09:09:09;101440.34;;;11.01;62.15
78014;BME280;67222;50.182;8.734;2023-04-09T09:11:36;101438.69;;;11.00;62.75
78014;BME280;67222;50.182;8.734;2023-04-09T09:14:07;101436.59;;;10.73;61.81
78014;BME280;67222;50.182;8.734;2023-04-09T09:16:34;101433.53;;;10.61;62.15
78014;BME280;67222;50.182;8.734;2023-04-09T09:19:02;101426.75;;;10.73;63.71
78014;BME280;67222;50.182;8.734;2023-04-09T09:21:28;101431.34;;;11.17;60.15
78014;BME280;67222;50.182;8.734;2023-04-09T09:23:54;101431.06;;;11.27;58.51
78014;BME280;67222;50.182;8.734;2023-04-09T09:26:22;101435.97;;;11.38;58.48
78014;BME280;67222;50.182;8.734;2023-04-09T09:28:49;101430.06;;;11.57;60.15
78014;BME280;67222;50.182;8.734;2023-04-09T09:31:16;101431.03;;;11.71;60.30
78014;BME280;67222;50.182;8.734;2023-04-09T09:33:42;101430.31;;;11.77;58.24
78014;BME280;67222;50.182;8.734;2023-04-09T09:36:07;101434.19;;;11.89;57.29
78014;BME280;67222;50.182;8.734;2023-04-09T09:38:35;101428.06;;;12.10;58.41
78014;BME280;67222;50.182;8.734;2023-04-09T09:41:18;101440.25;;;11.98;57.96
78014;BME280;67222;50.182;8.734;2023-04-09T09:43:43;101432.25;;;11.98;55.65
78014;BME280;67222;50.182;8.734;2023-04-09T09:46:10;101432.44;;;11.81;56.96
78014;BME280;67222;50.182;8.734;2023-04-09T09:48:35;101429.59;;;11.83;55.94
78014;BME280;67222;50.182;8.734;2023-04-09T09:51:02;101428.75;;;11.97;57.37
78014;BME280;67222;50.182;8.734;2023-04-09T09:53:35;101419.03;;;12.11;56.19
78014;BME280;67222;50.182;8.734;2023-04-09T09:56:01;101414.69;;;12.10;54.50
78014;BME280;67222;50.182;8.734;2023-04-09T09:58:36;101422.81;;;12.02;55.38
78014;BME280;67222;50.182;8.734;2023-04-09T10:01:07;101422.41;;;12.20;55.85
78014;BME280;67222;50.182;8.734;2023-04-09T10:03:36;101424.81;;;12.36;53.59
78014;BME280;67222;50.182;8.734;2023-04-09T10:06:04;101419.47;;;12.15;53.48
78014;BME280;67222;50.182;8.734;2023-04-09T10:08:32;101418.75;;;12.06;55.23
78014;BME280;67222;50.182;8.734;2023-04-09T10:10:59;101417.16;;;11.90;53.85
78014;BME280;67222;50.182;8.734;2023-04-09T10:13:28;101414.81;;;11.87;54.38
78014;BME280;67222;50.182;8.734;2023-04-09T10:15:57;101411.44;;;11.93;56.56
78014;BME280;67222;50.182;8.734;2023-04-09T10:18:23;101417.81;;;11.63;53.83
78014;BME280;67222;50.182;8.734;2023-04-09T10:20:53;101402.22;;;11.66;54.63
78014;BME280;67222;50.182;8.734;2023-04-09T10:23:30;101418.59;;;11.78;54.87
78014;BME280;67222;50.182;8.734;2023-04-09T10:25:56;101412.81;;;11.74;55.60
78014;BME280;67222;50.182;8.734;2023-04-09T10:28:22;101406.25;;;11.77;56.29
78014;BME280;67222;50.182;8.734;2023-04-09T10:30:48;101408.22;;;11.83;54.74
78014;BME280;67222;50.182;8.734;2023-04-09T10:33:15;101408.78;;;12.15;54.46
78014;BME280;67222;50.182;8.734;2023-04-09T10:35:50;101405.47;;;12.34;56.56
78014;BME280;67222;50.182;8.734;2023-04-09T10:38:15;101400.75;;;12.15;55.49
78014;BME280;67222;50.182;8.734;2023-04-09T10:40:50;101405.09;;;12.16;57.21
78014;BME280;67222;50.182;8.734;2023-04-09T10:43:18;101404.25;;;12.36;55.95
78014;BME280;67222;50.182;8.734;2023-04-09T10:45:45;101404.06;;;12.38;54.19
78014;BME280;67222;50.182;8.734;2023-04-09T10:48:13;101394.19;;;12.38;54.42
78014;BME280;67222;50.182;8.734;2023-04-09T10:50:41;101397.44;;;12.55;55.79
78014;BME280;67222;50.182;8.734;2023-04-09T10:53:06;101393.25;;;12.46;53.75
78014;BME280;67222;50.182;8.734;2023-04-09T10:55:47;101390.56;;;12.25;55.94
78014;BME280;67222;50.182;8.734;2023-04-09T10:58:14;101391.66;;;12.09;53.32
78014;BME280;67222;50.182;8.734;2023-04-09T11:00:44;101386.16;;;11.96;52.49
78014;BME280;67222;50.182;8.734;2023-04-09T11:05:46;101388.69;;;12.04;55.16
78014;BME280;67222;50.182;8.734;2023-04-09T11:08:14;101386.88;;;12.26;55.51
78014;BME280;67222;50.182;8.734;2023-04-09T11:10:41;101393.22;;;12.25;52.76
78014;BME280;67222;50.182;8.734;2023-04-09T11:13:15;101383.00;;;12.50;53.71
78014;BME280;67222;50.182;8.734;2023-04-09T11:15:42;101385.34;;;12.38;52.88
78014;BME280;67222;50.182;8.734;2023-04-09T11:18:07;101379.56;;;12.34;51.93
78014;BME280;67222;50.182;8.734;2023-04-09T11:20:38;101383.44;;;12.32;52.11
78014;BME280;67222;50.182;8.734;2023-04-09T11:23:04;101380.22;;;12.64;53.72
78014;BME280;67222;50.182;8.734;2023-04-09T11:25:32;101385.75;;;13.19;50.49
78014;BME280;67222;50.182;8.734;2023-04-09T11:27:58;101378.47;;;13.41;49.59
78014;BME280;67222;50.182;8.734;2023-04-09T11:30:24;101373.22;;;13.60;49.46
78014;BME280;67222;50.182;8.734;2023-04-09T11:32:50;101368.09;;;13.24;51.62
78014;BME280;67222;50.182;8.734;2023-04-09T11:35:17;101374.66;;;12.94;51.46
78014;BME280;67222;50.182;8.734;2023-04-09T11:37:44;101362.88;;;12.60;50.87
78014;BME280;67222;50.182;8.734;2023-04-09T11:40:28;101369.94;;;12.40;54.55
78014;BME280;67222;50.182;8.734;2023-04-09T11:42:54;101364.53;;;12.61;57.54
78014;BME280;67222;50.182;8.734;2023-04-09T11:45:23;101375.41;;;12.81;53.84
78014;BME280;67222;50.182;8.734;2023-04-09T11:47:49;101380.03;;;12.94;56.22
78014;BME280;67222;50.182;8.734;2023-04-09T11:50:16;101366.00;;;13.20;53.31
78014;BME280;67222;50.182;8.734;2023-04-09T11:52:44;101361.72;;;13.32;51.38
78014;BME280;67222;50.182;8.734;2023-04-09T11:55:09;101363.53;;;13.66;50.97
78014;BME280;67222;50.182;8.734;2023-04-09T11:57:43;101369.16;;;13.78;51.64
78014;BME280;67222;50.182;8.734;2023-04-09T12:00:13;101364.97;;;14.56;47.99
78014;BME280;67222;50.182;8.734;2023-04-09T12:02:41;101362.81;;;14.12;50.12
78014;BME280;67222;50.182;8.734;2023-04-09T12:05:08;101363.22;;;14.09;50.64
78014;BME280;67222;50.182;8.734;2023-04-09T12:07:34;101364.69;;;14.31;51.15
78014;BME280;67222;50.182;8.734;2023-04-09T12:10:08;101366.19;;;14.47;51.07
78014;BME280;67222;50.182;8.734;2023-04-09T12:12:42;101361.19;;;14.17;49.61
78014;BME280;67222;50.182;8.734;2023-04-09T12:17:36;101348.38;;;14.13;50.94
78014;BME280;67222;50.182;8.734;2023-04-09T12:20:02;101360.34;;;14.10;51.92
78014;BME280;67222;50.182;8.734;2023-04-09T12:22:27;101350.88;;;14.28;52.35
78014;BME280;67222;50.182;8.734;2023-04-09T12:24:53;101346.34;;;14.41;49.11
78014;BME280;67222;50.182;8.734;2023-04-09T12:27:19;101346.47;;;15.26;48.09
78014;BME280;67222;50.182;8.734;2023-04-09T12:29:45;101339.28;;;15.64;48.00
78014;BME280;67222;50.182;8.734;2023-04-09T12:32:10;101344.25;;;14.96;46.93
78014;BME280;67222;50.182;8.734;2023-04-09T12:34:36;101354.41;;;14.61;47.06
78014;BME280;67222;50.182;8.734;2023-04-09T12:37:01;101343.66;;;14.35;44.09
78014;BME280;67222;50.182;8.734;2023-04-09T12:39:26;101341.38;;;14.18;44.16
78014;BME280;67222;50.182;8.734;2023-04-09T12:41:51;101342.19;;;13.99;43.73
78014;BME280;67222;50.182;8.734;2023-04-09T12:44:18;101345.09;;;14.37;43.79
78014;BME280;67222;50.182;8.734;2023-04-09T12:46:43;101332.88;;;15.07;41.27
78014;BME280;67222;50.182;8.734;2023-04-09T12:49:09;101325.75;;;15.84;41.31
78014;BME280;67222;50.182;8.734;2023-04-09T12:51:34;101323.28;;;18.39;34.92
78014;BME280;67222;50.182;8.734;2023-04-09T12:53:59;101303.81;;;19.76;32.59
78014;BME280;67222;50.182;8.734;2023-04-09T12:56:24;101308.69;;;20.74;30.91
78014;BME280;67222;50.182;8.734;2023-04-09T12:58:50;101307.41;;;19.13;31.09
78014;BME280;67222;50.182;8.734;2023-04-09T13:01:15;101316.97;;;17.62;32.97
78014;BME280;67222;50.182;8.734;2023-04-09T13:03:41;101306.22;;;17.43;33.47
78014;BME280;67222;50.182;8.734;2023-04-09T13:06:07;101309.50;;;16.72;35.33
78014;BME280;67222;50.182;8.734;2023-04-09T13:08:32;101305.44;;;16.13;35.61
78014;BME280;67222;50.182;8.734;2023-04-09T13:10:58;101301.78;;;15.76;36.85
78014;BME280;67222;50.182;8.734;2023-04-09T13:13:23;101301.44;;;15.59;38.31
78014;BME280;67222;50.182;8.734;2023-04-09T13:15:49;101298.31;;;16.50;37.25
78014;BME280;67222;50.182;8.734;2023-04-09T13:18:14;101290.19;;;17.48;36.35
78014;BME280;67222;50.182;8.734;2023-04-09T13:20:40;101291.31;;;17.41;34.62
78014;BME280;67222;50.182;8.734;2023-04-09T13:23:05;101287.16;;;17.56;33.33
78014;BME280;67222;50.182;8.734;2023-04-09T13:25:30;101288.28;;;17.19;35.94
78014;BME280;67222;50.182;8.734;2023-04-09T13:27:56;101289.34;;;16.31;37.77
78014;BME280;67222;50.182;8.734;2023-04-09T13:30:21;101289.34;;;15.43;38.10
78014;BME280;67222;50.182;8.734;2023-04-09T13:32:47;101289.03;;;15.58;38.48
78014;BME280;67222;50.182;8.734;2023-04-09T13:35:13;101287.44;;;14.99;38.47
78014;BME280;67222;50.182;8.734;2023-04-09T13:37:38;101287.28;;;14.88;38.60
78014;BME280;67222;50.182;8.734;2023-04-09T13:40:04;101288.91;;;15.40;38.82
78014;BME280;67222;50.182;8.734;2023-04-09T13:42:29;101287.38;;;15.64;39.02
78014;BME280;67222;50.182;8.734;2023-04-09T13:44:55;101281.78;;;15.97;38.89
78014;BME280;67222;50.182;8.734;2023-04-09T13:47:21;101282.34;;;16.05;39.40
78014;BME280;67222;50.182;8.734;2023-04-09T13:49:47;101274.06;;;15.75;39.30
78014;BME280;67222;50.182;8.734;2023-04-09T13:52:15;101270.69;;;15.42;39.44
78014;BME280;67222;50.182;8.734;2023-04-09T13:54:40;101275.66;;;15.00;39.26
78014;BME280;67222;50.182;8.734;2023-04-09T13:57:06;101270.78;;;14.64;40.11
78014;BME280;67222;50.182;8.734;2023-04-09T13:59:31;101265.66;;;14.36;40.54
78014;BME280;67222;50.182;8.734;2023-04-09T14:01:56;101261.50;;;14.40;41.72
78014;BME280;67222;50.182;8.734;2023-04-09T14:04:22;101260.91;;;14.32;42.34
78014;BME280;67222;50.182;8.734;2023-04-09T14:06:47;101261.31;;;14.29;39.84
78014;BME280;67222;50.182;8.734;2023-04-09T14:09:13;101255.53;;;14.32;40.64
78014;BME280;67222;50.182;8.734;2023-04-09T14:11:38;101253.06;;;14.37;42.33
78014;BME280;67222;50.182;8.734;2023-04-09T14:14:04;101253.47;;;14.34;43.41
78014;BME280;67222;50.182;8.734;2023-04-09T14:16:29;101254.22;;;14.80;48.70
78014;BME280;67222;50.182;8.734;2023-04-09T14:18:55;101237.31;;;16.19;40.94
78014;BME280;67222;50.182;8.734;2023-04-09T14:21:21;101231.59;;;18.09;36.82
78014;BME280;67222;50.182;8.734;2023-04-09T14:23:47;101227.72;;;19.72;34.28
78014;BME280;67222;50.182;8.734;2023-04-09T14:26:13;101217.84;;;21.15;31.62
78014;BME280;67222;50.182;8.734;2023-04-09T14:28:38;101222.78;;;20.75;30.55
78014;BME280;67222;50.182;8.734;2023-04-09T14:31:04;101224.22;;;21.04;28.46
78014;BME280;67222;50.182;8.734;2023-04-09T14:33:29;101226.19;;;20.10;32.83
78014;BME280;67222;50.182;8.734;2023-04-09T14:35:55;101227.38;;;20.36;32.42
78014;BME280;67222;50.182;8.734;2023-04-09T14:38:21;101226.31;;;19.13;32.74
78014;BME280;67222;50.182;8.734;2023-04-09T14:40:48;101230.28;;;21.11;28.31
78014;BME280;67222;50.182;8.734;2023-04-09T14:43:13;101231.97;;;20.35;30.99
78014;BME280;67222;50.182;8.734;2023-04-09T14:45:38;101229.94;;;19.75;30.40
78014;BME280;67222;50.182;8.734;2023-04-09T14:48:04;101224.19;;;19.72;35.57
78014;BME280;67222;50.182;8.734;2023-04-09T14:50:30;101215.13;;;20.50;30.18
78014;BME280;67222;50.182;8.734;2023-04-09T14:52:56;101212.56;;;18.74;31.23
78014;BME280;67222;50.182;8.734;2023-04-09T14:55:22;101214.94;;;17.89;33.31
78014;BME280;67222;50.182;8.734;2023-04-09T14:57:49;101215.66;;;17.66;36.63
78014;BME280;67222;50.182;8.734;2023-04-09T15:00:15;101215.84;;;17.82;36.75
78014;BME280;67222;50.182;8.734;2023-04-09T15:02:40;101214.19;;;16.55;35.21
78014;BME280;67222;50.182;8.734;2023-04-09T15:05:06;101213.41;;;16.29;39.22
78014;BME280;67222;50.182;8.734;2023-04-09T15:07:32;101215.38;;;16.41;37.01
78014;BME280;67222;50.182;8.734;2023-04-09T15:09:57;101216.50;;;16.08;36.00
78014;BME280;67222;50.182;8.734;2023-04-09T15:12:32;101206.19;;;16.85;35.84
78014;BME280;67222;50.182;8.734;2023-04-09T15:14:57;101206.50;;;16.77;34.86
78014;BME280;67222;50.182;8.734;2023-04-09T15:17:23;101210.41;;;16.19;37.20
78014;BME280;67222;50.182;8.734;2023-04-09T15:19:49;101205.75;;;15.83;36.22
78014;BME280;67222;50.182;8.734;2023-04-09T15:22:14;101198.34;;;15.47;35.28
78014;BME280;67222;50.182;8.734;2023-04-09T15:24:40;101199.50;;;15.20;36.45
78014;BME280;67222;50.182;8.734;2023-04-09T15:27:05;101191.13;;;15.09;38.15
78014;BME280;67222;50.182;8.734;2023-04-09T15:29:31;101197.75;;;15.00;37.42
78014;BME280;67222;50.182;8.734;2023-04-09T15:31:56;101201.31;;;14.94;39.95
78014;BME280;67222;50.182;8.734;2023-04-09T15:34:22;101201.47;;;14.99;40.36
78014;BME280;67222;50.182;8.734;2023-04-09T15:36:47;101192.63;;;14.92;36.32
78014;BME280;67222;50.182;8.734;2023-04-09T15:39:13;101192.63;;;14.92;37.66
78014;BME280;67222;50.182;8.734;2023-04-09T15:41:38;101194.94;;;14.82;36.72
78014;BME280;67222;50.182;8.734;2023-04-09T15:44:03;101203.84;;;14.76;37.50
78014;BME280;67222;50.182;8.734;2023-04-09T15:46:29;101191.06;;;14.71;36.22
78014;BME280;67222;50.182;8.734;2023-04-09T15:48:54;101194.94;;;14.82;37.67
78014;BME280;67222;50.182;8.734;2023-04-09T15:51:19;101191.41;;;14.88;39.51
78014;BME280;67222;50.182;8.734;2023-04-09T15:53:45;101188.78;;;14.75;38.16
78014;BME280;67222;50.182;8.734;2023-04-09T15:56:11;101184.22;;;14.75;39.66
78014;BME280;67222;50.182;8.734;2023-04-09T15:58:40;101188.78;;;14.75;39.61
78014;BME280;67222;50.182;8.734;2023-04-09T16:01:08;101174.09;;;14.77;39.17
78014;BME280;67222;50.182;8.734;2023-04-09T16:03:34;101185.25;;;14.81;37.14
78014;BME280;67222;50.182;8.734;2023-04-09T16:06:08;101189.00;;;14.67;37.93
78014;BME280;67222;50.182;8.734;2023-04-09T16:08:35;101180.34;;;14.71;38.09
78014;BME280;67222;50.182;8.734;2023-04-09T16:11:02;101188.13;;;14.79;36.45
78014;BME280;67222;50.182;8.734;2023-04-09T16:13:28;101186.84;;;14.95;36.11
78014;BME280;67222;50.182;8.734;2023-04-09T16:15:53;101182.34;;;15.21;36.52
78014;BME280;67222;50.182;8.734;2023-04-09T16:18:19;101175.94;;;15.22;40.23
78014;BME280;67222;50.182;8.734;2023-04-09T16:20:44;101171.25;;;15.42;35.07
78014;BME280;67222;50.182;8.734;2023-04-09T16:23:10;101180.63;;;15.33;39.74
78014;BME280;67222;50.182;8.734;2023-04-09T16:25:35;101176.03;;;15.08;35.75
78014;BME280;67222;50.182;8.734;2023-04-09T16:28:01;101172.31;;;15.03;35.99
78014;BME280;67222;50.182;8.734;2023-04-09T16:30:26;101179.34;;;15.04;37.87
78014;BME280;67222;50.182;8.734;2023-04-09T16:32:51;101181.09;;;14.85;37.53
78014;BME280;67222;50.182;8.734;2023-04-09T16:35:17;101176.16;;;14.82;39.64
78014;BME280;67222;50.182;8.734;2023-04-09T16:37:43;101173.09;;;14.65;38.90
78014;BME280;67222;50.182;8.734;2023-04-09T16:40:08;101182.88;;;14.46;37.69
78014;BME280;67222;50.182;8.734;2023-04-09T16:42:34;101183.91;;;14.39;38.02
78014;BME280;67222;50.182;8.734;2023-04-09T16:45:01;101181.06;;;14.14;38.40
78014;BME280;67222;50.182;8.734;2023-04-09T16:47:28;101180.63;;;14.23;37.71
78014;BME280;67222;50.182;8.734;2023-04-09T16:49:53;101184.59;;;14.01;37.75
78014;BME280;67222;50.182;8.734;2023-04-09T16:52:19;101184.59;;;13.88;38.88
78014;BME280;67222;50.182;8.734;2023-04-09T16:54:44;101184.81;;;13.80;38.84
78014;BME280;67222;50.182;8.734;2023-04-09T16:57:09;101189.31;;;13.66;39.98
78014;BME280;67222;50.182;8.734;2023-04-09T16:59:35;101193.03;;;13.65;39.90
78014;BME280;67222;50.182;8.734;2023-04-09T17:02:00;101193.63;;;13.54;39.79
78014;BME280;67222;50.182;8.734;2023-04-09T17:04:26;101181.66;;;13.56;41.18
78014;BME280;67222;50.182;8.734;2023-04-09T17:06:51;101183.94;;;13.53;41.08
78014;BME280;67222;50.182;8.734;2023-04-09T17:09:16;101180.63;;;13.38;41.45
78014;BME280;67222;50.182;8.734;2023-04-09T17:11:42;101182.88;;;13.27;42.99
78014;BME280;67222;50.182;8.734;2023-04-09T17:14:08;101173.38;;;13.18;42.47
78014;BME280;67222;50.182;8.734;2023-04-09T17:16:33;101169.50;;;13.27;43.08
78014;BME280;67222;50.182;8.734;2023-04-09T17:19:00;101171.75;;;13.24;46.01
78014;BME280;67222;50.182;8.734;2023-04-09T17:21:25;101175.81;;;13.13;42.63
78014;BME280;67222;50.182;8.734;2023-04-09T17:23:51;101179.09;;;13.09;45.86
78014;BME280;67222;50.182;8.734;2023-04-09T17:26:16;101184.59;;;12.94;48.14
78014;BME280;67222;50.182;8.734;2023-04-09T17:28:42;101190.72;;;12.81;48.05
78014;BME280;67222;50.182;8.734;2023-04-09T17:31:12;101182.66;;;12.74;47.94
78014;BME280;67222;50.182;8.734;2023-04-09T17:33:37;101182.59;;;12.61;49.67
78014;BME280;67222;50.182;8.734;2023-04-09T17:36:03;101176.81;;;12.51;49.52
78014;BME280;67222;50.182;8.734;2023-04-09T17:38:28;101188.44;;;12.37;48.95
78014;BME280;67222;50.182;8.734;2023-04-09T17:40:55;101198.28;;;12.30;50.30
78014;BME280;67222;50.182;8.734;2023-04-09T17:43:21;101196.97;;;12.19;50.24
78014;BME280;67222;50.182;8.734;2023-04-09T17:45:46;101195.06;;;12.13;49.29
78014;BME280;67222;50.182;8.734;2023-04-09T17:48:13;101195.44;;;11.82;50.97
78014;BME280;67222;50.182;8.734;2023-04-09T17:50:38;101198.22;;;11.74;50.67
78014;BME280;67222;50.182;8.734;2023-04-09T17:53:04;101196.69;;;11.65;50.75
78014;BME280;67222;50.182;8.734;2023-04-09T17:55:29;101201.81;;;11.60;51.48
78014;BME280;67222;50.182;8.734;2023-04-09T17:57:54;101192.00;;;11.45;51.47
78014;BME280;67222;50.182;8.734;2023-04-09T18:00:20;101195.69;;;11.44;51.34
78014;BME280;67222;50.182;8.734;2023-04-09T18:02:45;101191.84;;;11.32;52.13
78014;BME280;67222;50.182;8.734;2023-04-09T18:05:10;101202.53;;;11.32;53.66
78014;BME280;67222;50.182;8.734;2023-04-09T18:07:36;101207.19;;;11.23;53.77
78014;BME280;67222;50.182;8.734;2023-04-09T18:10:02;101207.59;;;11.06;53.41
78014;BME280;67222;50.182;8.734;2023-04-09T18:12:28;101211.69;;;10.72;55.36
78014;BME280;67222;50.182;8.734;2023-04-09T18:14:54;101221.00;;;10.61;55.20
78014;BME280;67222;50.182;8.734;2023-04-09T18:17:19;101215.94;;;10.52;56.03
78014;BME280;67222;50.182;8.734;2023-04-09T18:19:45;101218.78;;;10.50;56.33
78014;BME280;67222;50.182;8.734;2023-04-09T18:22:11;101217.31;;;10.48;56.61
78014;BME280;67222;50.182;8.734;2023-04-09T18:24:36;101225.03;;;10.43;57.25